Aérodrome :







RETROUVEZ-NOUS SUR...

 
LOGIN :

S'inscrire | Disclaimer

   EN    FR    IT 

 









Légende :    VFR   VFR Marginal   IFR   IFR Intensif   IFR Très Intensif
Visi : 
Plafond : 
>= 8 km
>= 3000ft
5 à 8 km
1000 à 3000 ft
1500m à 5 km
500 à 1000 ft
800 à 1500m
200 à 500 ft
< 800m
< 200 ft
Symboles :   Orages  Brouillard  Fortes neiges  Fortes précipitations  Vent > 20 kt






- Altitude de l'aérodrome : 501 ft
- Code IATA : YWB


CYKG - Kangiqsujuaq (Wakeham Bay)

DERNIER METAR :
  • 021500Z CCA 00000KT 15SM BKN030 BKN140 14/07 A2993 RMK SC5ACC1 SLP143 DENSITY ALT 600FT

METARs EXPIRÉS :
  • 021400Z 00000KT 15SM FEW060 BKN130 BKN210 14/07 A2995 RMK SC1AC4CC2 ACC EMBD SLP149 DENSITY ALT 600FT
  • 021300Z VRB02KT 15SM FEW060 BKN140 BKN210 14/07 A2997 RMK SC1AC3CI1 ACC EMBD SLP156

TAF TAF CYKG
Valide du 02 à 14h jusqu'au 02 à 21h UTC


021338Z 0214/0221 VRB03KT P6SM SCT060 BKN120
TEMPO 0214/0221 5SM -SHRA BR SCT020 OVC060
BECMG 0216/0218 32012KT RMK NXT FCST WILL BE ISSUED AT 031345Z
FIR CZUL / Amérique du Nord



MET'MAP, la Météo Aéronautique d'un coup d'oeil ! - Copyright ORBIFLY Décembre 2007 - Disclaimer

ORBIFLY MET'MAP TEAM :

Programmation & Développement : Alexandra Zaïnal
Sur une idée originale de : Baudouin d'Aumeries
Assistance à la programmation : Marc-Olivier Méhu
Soutien technique & logistique : Manuel Goepfert

Contact : metmap@orbifly.com




SOURCES & CREDITS :

   NOAA